Weyers Cave, Virginia
Current Conditions -  °F | °C
As of 6:55 PM on Wednesday 22 Oct 2014 (Local Time) from KSHD Reporting Station
Overcast Overcast  
Wind Chill: 53°   Ceiling: 3500
Heat Index: 53°   Visibility: 10mi
Dew Point: 40°   Wind: 12mph
Humidity: 61%   Direction: 330°NNW
Pressure: 30.05"   Gusts: NA
Location:  38.29°N, 78.91°W
Report Text: KSHD 222255Z AUTO 33010KT 10SM BKN035 OVC070 12/05 A3005 RMK AO2 LTG DSNT E T01180046
Loading
Personal Weather Stations






























Interactive Weather Map
Tropical Storm Tracking
New forecast layout! Learn more

10-Day Weather Forecast

Advertisements
Track Severe Weather on mobile